Time;durP1;ratioP1;P1;durP2;ratioP2;P2;SDS_P1;SDS_P2;PMS_P1;PMS_P2;Temp;Humidity;BMP_temperature;BMP_pressure;BME280_temperature;BME280_humidity;BME280_pressure;Samples;Min_cycle;Max_cycle;Signal;HPM_P1;HPM_P2
2024/02/17 00:02:15;;;;;;;15.87;14.17;;;;;;;;;;6227908;23;20169;-79
2024/02/17 00:04:44;;;;;;;16.23;14.53;;;;;;;;;;6203804;23;20189;-79
2024/02/17 00:07:11;;;;;;;15.37;13.80;;;;;;;;;;6255821;23;20157;-79
2024/02/17 00:09:38;;;;;;;15.70;14.10;;;;;;;;;;6257384;23;20608;-82
2024/02/17 00:12:08;;;;;;;15.90;14.40;;;;;;;;;;6231288;23;20161;-79
2024/02/17 00:14:40;;;;;;;15.27;13.67;;;;;;;;;;6257163;23;20171;-80
2024/02/17 00:17:09;;;;;;;14.70;13.27;;;;;;;;;;6257329;23;20153;-80
2024/02/17 00:19:38;;;;;;;16.63;14.33;;;;;;;;;;6231972;23;20165;-79
2024/02/17 00:22:07;;;;;;;17.40;15.13;;;;;;;;;;6206320;23;20169;-79
2024/02/17 00:24:35;;;;;;;15.93;14.30;;;;;;;;;;6256951;23;20192;-79
2024/02/17 00:27:07;;;;;;;16.33;14.73;;;;;;;;;;6229750;23;20157;-79
2024/02/17 00:29:38;;;;;;;15.87;14.37;;;;;;;;;;6200547;23;20193;-80
2024/02/17 00:32:07;;;;;;;17.27;14.80;;;;;;;;;;6251516;23;20157;-80
2024/02/17 00:34:40;;;;;;;16.60;14.80;;;;;;;;;;6245604;23;20145;-79
2024/02/17 00:37:07;;;;;;;17.73;15.50;;;;;;;;;;6230792;23;20169;-79
2024/02/17 00:39:36;;;;;;;16.90;15.10;;;;;;;;;;6230445;23;20169;-79
2024/02/17 00:42:04;;;;;;;17.30;15.57;;;;;;;;;;6231333;23;20165;-79
2024/02/17 00:44:33;;;;;;;17.37;15.50;;;;;;;;;;6258882;23;20181;-79
2024/02/17 00:47:09;;;;;;;17.23;15.43;;;;;;;;;;6258056;23;20145;-81
2024/02/17 00:49:36;;;;;;;18.97;17.17;;;;;;;;;;6256930;23;20179;-81
2024/02/17 00:52:09;;;;;;;17.63;15.73;;;;;;;;;;6257038;23;20157;-81
2024/02/17 00:54:38;;;;;;;17.17;15.37;;;;;;;;;;6258122;23;20173;-79
2024/02/17 00:57:09;;;;;;;17.73;16.03;;;;;;;;;;6257908;23;20153;-80
2024/02/17 00:59:38;;;;;;;16.73;15.03;;;;;;;;;;6258292;23;20180;-80
2024/02/17 01:02:08;;;;;;;16.30;14.70;;;;;;;;;;6258840;23;20165;-80
2024/02/17 01:04:43;;;;;;;16.70;15.00;;;;;;;;;;6233338;23;20165;-80
2024/02/17 01:07:11;;;;;;;16.57;14.97;;;;;;;;;;6258834;23;20168;-80
2024/02/17 01:09:39;;;;;;;17.30;15.53;;;;;;;;;;6232615;23;20176;-82
2024/02/17 01:12:06;;;;;;;15.50;14.00;;;;;;;;;;6258976;23;20161;-80
2024/02/17 01:14:36;;;;;;;16.13;14.60;;;;;;;;;;6232627;23;20157;-81
2024/02/17 01:17:04;;;;;;;15.87;14.37;;;;;;;;;;6257850;23;20169;-80
2024/02/17 01:19:31;;;;;;;16.67;14.97;;;;;;;;;;6233460;23;20179;-80
2024/02/17 01:22:01;;;;;;;15.83;14.33;;;;;;;;;;6258880;23;20157;-80
2024/02/17 01:24:46;;;;;;;16.43;14.73;;;;;;;;;;6249151;23;20169;-81
2024/02/17 01:27:13;;;;;;;17.07;15.40;;;;;;;;;;6258316;23;20229;-80
2024/02/17 01:29:40;;;;;;;17.23;15.50;;;;;;;;;;6258327;22;20300;-81
2024/02/17 01:32:09;;;;;;;16.87;15.27;;;;;;;;;;6258210;23;20604;-82
2024/02/17 01:34:36;;;;;;;16.33;14.63;;;;;;;;;;6260298;23;20157;-81
2024/02/17 01:37:05;;;;;;;16.43;14.77;;;;;;;;;;6258781;23;20185;-82
2024/02/17 01:39:37;;;;;;;17.30;15.50;;;;;;;;;;6233409;23;20168;-82
2024/02/17 01:42:07;;;;;;;16.77;14.97;;;;;;;;;;6260372;23;20612;-81
2024/02/17 01:44:36;;;;;;;18.17;15.00;;;;;;;;;;6247104;23;20207;-82
2024/02/17 01:47:11;;;;;;;17.07;15.27;;;;;;;;;;6259773;23;20163;-81
2024/02/17 01:49:38;;;;;;;15.70;14.10;;;;;;;;;;6258649;23;20149;-81
2024/02/17 01:52:07;;;;;;;16.40;14.70;;;;;;;;;;6258614;23;20184;-82
2024/02/17 01:54:34;;;;;;;17.13;15.00;;;;;;;;;;6220797;23;20177;-82
2024/02/17 01:57:04;;;;;;;16.47;14.77;;;;;;;;;;6232889;23;20141;-81
2024/02/17 01:59:40;;;;;;;17.13;13.97;;;;;;;;;;6234912;23;20141;-82
2024/02/17 02:02:09;;;;;;;15.83;14.17;;;;;;;;;;6232153;23;20228;-82
2024/02/17 02:04:38;;;;;;;15.97;14.37;;;;;;;;;;6232125;23;20212;-82
2024/02/17 02:07:10;;;;;;;16.10;14.03;;;;;;;;;;6260253;23;20200;-82
2024/02/17 02:09:41;;;;;;;15.10;13.50;;;;;;;;;;6260208;23;20150;-82
2024/02/17 02:12:12;;;;;;;14.47;13.07;;;;;;;;;;6259034;23;20166;-81
2024/02/17 02:14:39;;;;;;;14.87;13.37;;;;;;;;;;6232703;23;20611;-81
2024/02/17 02:17:06;;;;;;;15.50;13.80;;;;;;;;;;6259294;23;20162;-81
2024/02/17 02:19:33;;;;;;;15.03;13.50;;;;;;;;;;6260254;23;20165;-81
2024/02/17 02:22:01;;;;;;;14.67;13.17;;;;;;;;;;6259065;23;20164;-81
2024/02/17 02:24:28;;;;;;;14.53;13.03;;;;;;;;;;6232841;23;20698;-82
2024/02/17 02:26:58;;;;;;;14.53;13.13;;;;;;;;;;6258463;23;20685;-81
2024/02/17 02:29:33;;;;;;;13.93;12.53;;;;;;;;;;6260689;22;20185;-82
2024/02/17 02:32:03;;;;;;;14.30;12.77;;;;;;;;;;6235776;23;20161;-81
2024/02/17 02:34:33;;;;;;;14.83;12.50;;;;;;;;;;6235684;23;20157;-81
2024/02/17 02:37:00;;;;;;;13.70;12.33;;;;;;;;;;6262221;23;20184;-81
2024/02/17 02:39:28;;;;;;;15.53;13.30;;;;;;;;;;6261330;23;20608;-82
2024/02/17 02:41:55;;;;;;;14.27;12.80;;;;;;;;;;6235895;23;20180;-82
2024/02/17 02:44:22;;;;;;;14.07;12.57;;;;;;;;;;6261105;23;20177;-81
2024/02/17 02:46:49;;;;;;;14.67;12.30;;;;;;;;;;6261182;23;20161;-81
2024/02/17 02:49:17;;;;;;;13.27;11.67;;;;;;;;;;6261579;23;20236;-82
2024/02/17 02:51:46;;;;;;;13.40;11.67;;;;;;;;;;6234455;23;20201;-81
2024/02/17 02:54:28;;;;;;;12.97;11.77;;;;;;;;;;6238175;23;20728;-81
2024/02/17 02:56:57;;;;;;;13.23;11.87;;;;;;;;;;6261909;23;20150;-81
2024/02/17 02:59:32;;;;;;;13.40;11.97;;;;;;;;;;6263902;23;20209;-82
2024/02/17 03:02:04;;;;;;;12.87;11.57;;;;;;;;;;6263566;23;20172;-81
2024/02/17 03:04:36;;;;;;;13.17;11.83;;;;;;;;;;6236023;23;20264;-82
2024/02/17 03:07:04;;;;;;;12.63;11.33;;;;;;;;;;6263407;23;20146;-82
2024/02/17 03:09:31;;;;;;;12.97;11.67;;;;;;;;;;6235399;23;20184;-81
2024/02/17 03:11:59;;;;;;;12.83;11.47;;;;;;;;;;6233720;23;20169;-82
2024/02/17 03:14:28;;;;;;;14.07;11.80;;;;;;;;;;6261521;23;20177;-81
2024/02/17 03:16:59;;;;;;;12.17;10.93;;;;;;;;;;6234250;23;20169;-81
2024/02/17 03:19:26;;;;;;;13.57;11.60;;;;;;;;;;6233497;23;20161;-81
2024/02/17 03:21:56;;;;;;;12.67;11.37;;;;;;;;;;6260653;23;20157;-81
2024/02/17 03:24:24;;;;;;;12.80;11.50;;;;;;;;;;6234575;23;20216;-82
2024/02/17 03:26:52;;;;;;;13.00;11.60;;;;;;;;;;6260280;23;20161;-82
2024/02/17 03:29:24;;;;;;;13.30;11.57;;;;;;;;;;6233341;23;20200;-82
2024/02/17 03:31:53;;;;;;;12.23;11.03;;;;;;;;;;6260404;23;20138;-82
2024/02/17 03:34:24;;;;;;;13.03;11.67;;;;;;;;;;6259723;23;20249;-82
2024/02/17 03:36:51;;;;;;;13.37;11.97;;;;;;;;;;6261182;23;20160;-82
2024/02/17 03:39:19;;;;;;;12.83;11.53;;;;;;;;;;6260911;23;20192;-82
2024/02/17 03:41:46;;;;;;;12.60;11.30;;;;;;;;;;6260121;23;20639;-81
2024/02/17 03:44:13;;;;;;;12.63;11.30;;;;;;;;;;6232622;23;20189;-81
2024/02/17 03:46:47;;;;;;;12.90;11.53;;;;;;;;;;6232612;23;20172;-82
2024/02/17 03:49:22;;;;;;;13.07;11.67;;;;;;;;;;6259966;23;20173;-82
2024/02/17 03:51:49;;;;;;;15.37;12.53;;;;;;;;;;6260186;23;20196;-82
2024/02/17 03:54:19;;;;;;;13.20;11.87;;;;;;;;;;6260583;23;20157;-82
2024/02/17 03:56:47;;;;;;;13.47;12.17;;;;;;;;;;6260293;23;20157;-82
2024/02/17 03:59:14;;;;;;;13.57;12.27;;;;;;;;;;6259613;23;20158;-81
2024/02/17 04:01:49;;;;;;;13.53;12.13;;;;;;;;;;6258974;23;20168;-82
2024/02/17 04:04:22;;;;;;;13.80;12.30;;;;;;;;;;6258505;23;20176;-82
2024/02/17 04:06:56;;;;;;;13.47;12.17;;;;;;;;;;6259742;23;20176;-82
2024/02/17 04:09:26;;;;;;;12.83;11.60;;;;;;;;;;6259323;23;20156;-81
2024/02/17 04:11:56;;;;;;;13.43;12.13;;;;;;;;;;6260359;23;20157;-81
2024/02/17 04:14:25;;;;;;;13.73;12.33;;;;;;;;;;6231995;23;20172;-82
2024/02/17 04:16:53;;;;;;;12.27;11.07;;;;;;;;;;6258834;23;20161;-81
2024/02/17 04:19:31;;;;;;;13.10;11.80;;;;;;;;;;6258428;23;20164;-82
2024/02/17 04:21:59;;;;;;;13.63;12.20;;;;;;;;;;6258869;23;20188;-81
2024/02/17 04:24:26;;;;;;;12.63;11.33;;;;;;;;;;6259065;23;20267;-82
2024/02/17 04:27:02;;;;;;;12.97;11.53;;;;;;;;;;6229950;23;20172;-81
2024/02/17 04:29:31;;;;;;;13.23;11.90;;;;;;;;;;6231031;23;20674;-81
2024/02/17 04:31:58;;;;;;;14.20;12.03;;;;;;;;;;6232004;23;20169;-81
2024/02/17 04:34:28;;;;;;;12.87;11.57;;;;;;;;;;6258469;23;20236;-81
2024/02/17 04:36:57;;;;;;;13.17;11.77;;;;;;;;;;6260126;23;20169;-82
2024/02/17 04:39:24;;;;;;;12.60;11.07;;;;;;;;;;6234528;23;20175;-82
2024/02/17 04:41:53;;;;;;;12.93;11.63;;;;;;;;;;6260018;23;20153;-82
2024/02/17 04:44:23;;;;;;;13.13;11.73;;;;;;;;;;6259681;23;20208;-81
2024/02/17 04:46:54;;;;;;;12.63;11.33;;;;;;;;;;6260668;23;20141;-82
2024/02/17 04:49:21;;;;;;;12.53;11.23;;;;;;;;;;6260761;23;20157;-82
2024/02/17 04:51:56;;;;;;;12.83;11.47;;;;;;;;;;6235318;23;20153;-82
2024/02/17 04:54:25;;;;;;;12.13;10.87;;;;;;;;;;6235646;23;20161;-82
2024/02/17 04:56:54;;;;;;;12.90;11.47;;;;;;;;;;6235042;23;20165;-82
2024/02/17 04:59:22;;;;;;;13.37;11.60;;;;;;;;;;6261677;23;20149;-81
2024/02/17 05:01:54;;;;;;;12.33;11.03;;;;;;;;;;6260383;23;20161;-82
2024/02/17 05:04:26;;;;;;;12.60;11.30;;;;;;;;;;6235568;23;20220;-82
2024/02/17 05:06:58;;;;;;;12.17;10.87;;;;;;;;;;6262802;23;20160;-82
2024/02/17 05:09:32;;;;;;;12.47;11.17;;;;;;;;;;6262109;23;20192;-82
2024/02/17 05:11:59;;;;;;;12.27;11.07;;;;;;;;;;6262546;23;20224;-82
2024/02/17 05:14:30;;;;;;;12.30;10.53;;;;;;;;;;6260437;23;20191;-82
2024/02/17 05:16:57;;;;;;;13.00;11.07;;;;;;;;;;6234591;23;20161;-82
2024/02/17 05:19:35;;;;;;;13.27;10.97;;;;;;;;;;6234073;23;20164;-82
2024/02/17 05:22:05;;;;;;;12.47;11.20;;;;;;;;;;6261288;23;20216;-82
2024/02/17 05:24:41;;;;;;;12.60;11.30;;;;;;;;;;6235848;23;20290;-82
2024/02/17 05:27:08;;;;;;;12.77;11.40;;;;;;;;;;6261752;23;20159;-82
2024/02/17 05:29:39;;;;;;;13.03;11.70;;;;;;;;;;6234140;23;20204;-82
2024/02/17 05:32:07;;;;;;;12.87;11.47;;;;;;;;;;6234646;23;20241;-82
2024/02/17 05:34:34;;;;;;;12.03;10.83;;;;;;;;;;6234411;23;20188;-82
2024/02/17 05:37:04;;;;;;;12.50;11.20;;;;;;;;;;6261408;23;20153;-82
2024/02/17 05:39:32;;;;;;;12.93;11.60;;;;;;;;;;6259546;23;20157;-82
2024/02/17 05:42:10;;;;;;;12.50;11.30;;;;;;;;;;6233321;23;20161;-81
2024/02/17 05:44:38;;;;;;;12.43;11.13;;;;;;;;;;6259406;23;20180;-81
2024/02/17 05:47:06;;;;;;;12.80;11.03;;;;;;;;;;6259513;23;20237;-82
2024/02/17 05:49:33;;;;;;;11.63;10.43;;;;;;;;;;6261622;23;20184;-82
2024/02/17 05:52:06;;;;;;;12.70;11.17;;;;;;;;;;6262283;23;20142;-82
2024/02/17 05:54:35;;;;;;;12.80;11.50;;;;;;;;;;6234738;23;20172;-82
2024/02/17 05:57:05;;;;;;;14.33;11.30;;;;;;;;;;6260074;23;20216;-81
2024/02/17 05:59:32;;;;;;;13.00;10.93;;;;;;;;;;6261161;23;20156;-82
2024/02/17 06:02:24;;;;;;;12.07;10.77;;;;;;;;;;6214118;23;20199;-81
2024/02/17 06:04:59;;;;;;;12.07;10.73;;;;;;;;;;6214624;23;20195;-82
2024/02/17 06:07:28;;;;;;;12.90;10.93;;;;;;;;;;6262854;23;20211;-82
2024/02/17 06:09:58;;;;;;;12.03;10.83;;;;;;;;;;6264159;23;20161;-82
2024/02/17 06:12:26;;;;;;;11.93;10.63;;;;;;;;;;6237083;23;20176;-82
2024/02/17 06:14:52;;;;;;;11.40;9.90;;;;;;;;;;6236182;23;20157;-82
2024/02/17 06:17:22;;;;;;;13.17;10.57;;;;;;;;;;6262097;23;20164;-82
2024/02/17 06:22:52;;;;;;;11.67;10.47;;;;;;;;;;6264037;23;20146;-82
2024/02/17 06:25:22;;;;;;;12.07;10.13;;;;;;;;;;6263490;23;20177;-82
2024/02/17 06:27:56;;;;;;;10.73;9.63;;;;;;;;;;6236152;23;20164;-81
2024/02/17 06:30:25;;;;;;;10.57;9.47;;;;;;;;;;6235426;23;20203;-82
2024/02/17 06:32:55;;;;;;;10.77;9.17;;;;;;;;;;6235009;23;20185;-80
2024/02/17 06:35:23;;;;;;;10.50;9.13;;;;;;;;;;6263538;23;20148;-82
2024/02/17 06:37:52;;;;;;;10.63;9.50;;;;;;;;;;6262895;23;20157;-82
2024/02/17 06:40:19;;;;;;;12.10;9.60;;;;;;;;;;6237378;23;20153;-82
2024/02/17 06:42:53;;;;;;;11.40;9.57;;;;;;;;;;6261083;23;20157;-80
2024/02/17 06:45:21;;;;;;;11.33;10.13;;;;;;;;;;6234231;23;20181;-79
2024/02/17 06:47:49;;;;;;;11.70;10.50;;;;;;;;;;6254751;23;20157;-79
2024/02/17 06:50:16;;;;;;;11.13;9.97;;;;;;;;;;6254775;23;20157;-79
2024/02/17 06:53:00;;;;;;;11.47;10.30;;;;;;;;;;6230670;23;20206;-79
2024/02/17 06:55:29;;;;;;;11.37;10.27;;;;;;;;;;6255293;23;20172;-79
2024/02/17 06:57:58;;;;;;;12.53;10.93;;;;;;;;;;6229392;23;20156;-79
2024/02/17 07:00:24;;;;;;;11.77;10.57;;;;;;;;;;6254571;23;20164;-79
2024/02/17 07:02:53;;;;;;;13.33;10.67;;;;;;;;;;6254116;23;20227;-79
2024/02/17 07:05:23;;;;;;;12.13;10.47;;;;;;;;;;6227224;23;20635;-79
2024/02/17 07:07:52;;;;;;;11.80;10.60;;;;;;;;;;6253602;23;20217;-79
2024/02/17 07:10:19;;;;;;;13.77;11.43;;;;;;;;;;6227085;23;20169;-79
2024/02/17 07:12:54;;;;;;;12.33;11.07;;;;;;;;;;6254187;23;20167;-79
2024/02/17 07:15:23;;;;;;;12.13;10.73;;;;;;;;;;6226932;23;20251;-79
2024/02/17 07:18:21;;;;;;;12.40;11.13;;;;;;;;;;6233017;23;20164;-79
2024/02/17 07:20:49;;;;;;;12.13;10.57;;;;;;;;;;6253570;23;20161;-79
2024/02/17 07:23:30;;;;;;;12.97;11.20;;;;;;;;;;6225573;23;20605;-79
2024/02/17 07:25:57;;;;;;;12.00;10.80;;;;;;;;;;6251933;23;20204;-79
2024/02/17 07:28:26;;;;;;;15.10;11.70;;;;;;;;;;6251339;23;20157;-78
2024/02/17 07:30:57;;;;;;;11.97;10.77;;;;;;;;;;6251295;23;20169;-79
2024/02/17 07:33:26;;;;;;;12.90;11.60;;;;;;;;;;6250691;23;20145;-79
2024/02/17 07:35:52;;;;;;;13.77;11.47;;;;;;;;;;6250023;23;20166;-79
2024/02/17 07:38:23;;;;;;;13.27;11.87;;;;;;;;;;6250739;23;20243;-79
2024/02/17 07:40:53;;;;;;;13.80;12.40;;;;;;;;;;6250188;23;20206;-81
2024/02/17 07:43:21;;;;;;;14.60;12.43;;;;;;;;;;6250854;23;20165;-79
2024/02/17 07:45:50;;;;;;;12.37;11.17;;;;;;;;;;6249408;23;20231;-79
2024/02/17 07:48:18;;;;;;;12.87;11.60;;;;;;;;;;6250067;23;20188;-79
2024/02/17 07:50:46;;;;;;;13.17;11.73;;;;;;;;;;6223159;23;20256;-79
2024/02/17 07:53:16;;;;;;;13.47;12.10;;;;;;;;;;6249035;23;20167;-79
2024/02/17 07:55:45;;;;;;;12.23;11.03;;;;;;;;;;6249332;23;20165;-79
2024/02/17 07:58:15;;;;;;;13.27;11.83;;;;;;;;;;6249434;23;20161;-79
2024/02/17 08:00:43;;;;;;;13.97;12.57;;;;;;;;;;6222260;23;20152;-78
2024/02/17 08:03:14;;;;;;;14.63;12.13;;;;;;;;;;6247133;23;20179;-79
2024/02/17 08:05:42;;;;;;;14.83;11.90;;;;;;;;;;6222018;23;20187;-79
2024/02/17 08:08:13;;;;;;;13.77;12.47;;;;;;;;;;6223893;23;20149;-79
2024/02/17 08:10:45;;;;;;;12.87;11.57;;;;;;;;;;6248991;23;20161;-79
2024/02/17 08:13:13;;;;;;;13.00;11.67;;;;;;;;;;6248547;23;20189;-79
2024/02/17 08:15:39;;;;;;;13.20;11.83;;;;;;;;;;6196723;23;20256;-79
2024/02/17 08:18:07;;;;;;;15.27;11.83;;;;;;;;;;6248500;23;20165;-79
2024/02/17 08:20:37;;;;;;;13.70;12.40;;;;;;;;;;6248963;23;20580;-80
2024/02/17 08:23:04;;;;;;;13.80;11.53;;;;;;;;;;6249611;23;20161;-79
2024/02/17 08:25:31;;;;;;;14.93;13.43;;;;;;;;;;6221128;23;20197;-80
2024/02/17 08:27:58;;;;;;;14.73;13.23;;;;;;;;;;6248393;23;20161;-79
2024/02/17 08:30:27;;;;;;;14.37;12.97;;;;;;;;;;6220681;22;20260;-79
2024/02/17 08:32:56;;;;;;;13.80;12.50;;;;;;;;;;6167297;23;20180;-78
2024/02/17 08:35:25;;;;;;;14.27;12.77;;;;;;;;;;6218370;23;20176;-79
2024/02/17 08:37:54;;;;;;;14.63;13.13;;;;;;;;;;6192238;23;20166;-79
2024/02/17 08:40:25;;;;;;;13.83;12.47;;;;;;;;;;6217740;23;20188;-79
2024/02/17 08:42:53;;;;;;;14.77;13.37;;;;;;;;;;6217520;23;20252;-80
2024/02/17 08:45:20;;;;;;;14.10;12.70;;;;;;;;;;6217258;23;20189;-79
2024/02/17 08:47:50;;;;;;;14.27;12.90;;;;;;;;;;6190199;23;20165;-80
2024/02/17 08:50:19;;;;;;;15.40;13.40;;;;;;;;;;6217730;23;20168;-79
2024/02/17 08:52:48;;;;;;;15.07;13.60;;;;;;;;;;6215670;23;20169;-79
2024/02/17 08:55:22;;;;;;;15.17;13.67;;;;;;;;;;6190750;23;20227;-79
2024/02/17 08:57:53;;;;;;;16.33;13.63;;;;;;;;;;6165533;23;20192;-79
2024/02/17 09:00:23;;;;;;;15.90;14.30;;;;;;;;;;6190483;23;20169;-79
2024/02/17 09:02:50;;;;;;;16.67;15.07;;;;;;;;;;6216465;23;20240;-78
2024/02/17 09:05:21;;;;;;;17.60;15.57;;;;;;;;;;6190055;23;20161;-80
2024/02/17 09:07:50;;;;;;;17.93;16.00;;;;;;;;;;6216261;23;20150;-78
2024/02/17 09:10:18;;;;;;;17.87;16.07;;;;;;;;;;6189666;23;20213;-78
2024/02/17 09:12:48;;;;;;;17.03;15.23;;;;;;;;;;6188804;23;20177;-79
2024/02/17 09:15:18;;;;;;;17.07;15.10;;;;;;;;;;6215227;23;20200;-78
2024/02/17 09:17:47;;;;;;;16.97;15.23;;;;;;;;;;6215203;23;20165;-78
2024/02/17 09:20:15;;;;;;;16.47;14.83;;;;;;;;;;6214875;23;20164;-78
2024/02/17 09:22:46;;;;;;;16.60;14.90;;;;;;;;;;6189182;23;20169;-78
2024/02/17 09:25:12;;;;;;;17.60;15.80;;;;;;;;;;6188691;23;20165;-79
2024/02/17 09:27:44;;;;;;;16.97;15.30;;;;;;;;;;6164348;23;20220;-78
2024/02/17 09:30:11;;;;;;;16.50;14.90;;;;;;;;;;6238977;23;20188;-79
2024/02/17 09:32:38;;;;;;;16.03;14.47;;;;;;;;;;6219097;23;20600;-79
2024/02/17 09:35:05;;;;;;;17.70;15.90;;;;;;;;;;6245442;23;20165;-80
2024/02/17 09:37:32;;;;;;;17.40;15.70;;;;;;;;;;6245700;23;20639;-78
2024/02/17 09:39:59;;;;;;;17.73;15.83;;;;;;;;;;6245226;23;20702;-79
2024/02/17 09:42:28;;;;;;;17.37;15.67;;;;;;;;;;6245329;23;20172;-79
2024/02/17 09:45:03;;;;;;;17.80;16.20;;;;;;;;;;6245747;23;20622;-78
2024/02/17 09:47:32;;;;;;;19.57;17.60;;;;;;;;;;6245835;23;20623;-79
2024/02/17 09:50:02;;;;;;;19.43;17.37;;;;;;;;;;6245770;23;20192;-79
2024/02/17 09:52:32;;;;;;;18.83;17.03;;;;;;;;;;6245451;23;20176;-80
2024/02/17 09:54:59;;;;;;;18.93;17.07;;;;;;;;;;6242114;23;20673;-79
2024/02/17 09:57:27;;;;;;;18.87;16.97;;;;;;;;;;6215381;23;20169;-79
2024/02/17 10:00:13;;;;;;;18.67;16.77;;;;;;;;;;6243703;23;20224;-78
2024/02/17 10:02:41;;;;;;;19.93;17.93;;;;;;;;;;6243793;23;20236;-78
2024/02/17 10:05:08;;;;;;;19.90;17.87;;;;;;;;;;6245166;23;20161;-78
2024/02/17 10:07:48;;;;;;;20.33;18.27;;;;;;;;;;6244511;23;20191;-80
2024/02/17 10:10:17;;;;;;;19.87;17.87;;;;;;;;;;6244426;23;20188;-79
2024/02/17 10:12:52;;;;;;;19.17;17.27;;;;;;;;;;6245109;23;20239;-79
2024/02/17 10:15:22;;;;;;;20.50;18.37;;;;;;;;;;6218994;23;20515;-80
2024/02/17 10:17:50;;;;;;;19.23;17.30;;;;;;;;;;6246405;23;20171;-80
2024/02/17 10:20:19;;;;;;;19.40;17.47;;;;;;;;;;6246404;23;20198;-80
2024/02/17 10:22:58;;;;;;;21.30;19.10;;;;;;;;;;6246351;23;20176;-79
2024/02/17 10:25:25;;;;;;;22.17;20.07;;;;;;;;;;6244614;23;20162;-80
2024/02/17 10:27:54;;;;;;;21.80;19.70;;;;;;;;;;6241496;23;20165;-78
2024/02/17 10:30:21;;;;;;;21.43;19.30;;;;;;;;;;6215585;23;20215;-78
2024/02/17 10:32:49;;;;;;;21.23;19.33;;;;;;;;;;6245203;23;20162;-80
2024/02/17 10:35:16;;;;;;;21.57;19.37;;;;;;;;;;6245223;23;20169;-78
2024/02/17 10:37:47;;;;;;;21.80;19.60;;;;;;;;;;6244830;23;20165;-78
2024/02/17 10:40:16;;;;;;;22.70;20.37;;;;;;;;;;6244881;23;20149;-78
2024/02/17 10:42:46;;;;;;;25.50;22.83;;;;;;;;;;6244669;23;20165;-79
2024/02/17 10:45:13;;;;;;;25.23;22.93;;;;;;;;;;6244519;23;20687;-78
2024/02/17 10:47:44;;;;;;;27.77;25.13;;;;;;;;;;6244648;23;20177;-79
2024/02/17 10:50:19;;;;;;;28.67;25.77;;;;;;;;;;6246416;23;20176;-78
2024/02/17 10:52:54;;;;;;;22.00;19.90;;;;;;;;;;6246476;23;20203;-78
2024/02/17 10:55:31;;;;;;;19.00;17.30;;;;;;;;;;6246154;23;20155;-78
2024/02/17 10:58:10;;;;;;;17.80;16.13;;;;;;;;;;6246720;23;20149;-78
2024/02/17 11:00:45;;;;;;;17.03;15.43;;;;;;;;;;6244507;23;20197;-78
2024/02/17 11:03:13;;;;;;;17.37;15.67;;;;;;;;;;6246583;23;20588;-78
2024/02/17 11:05:42;;;;;;;16.37;14.77;;;;;;;;;;6219496;23;20197;-79
2024/02/17 11:08:14;;;;;;;16.47;14.97;;;;;;;;;;6246800;23;20152;-78
2024/02/17 11:10:44;;;;;;;17.13;15.53;;;;;;;;;;6247349;23;20187;-78
2024/02/17 11:13:28;;;;;;;16.87;15.33;;;;;;;;;;6221215;23;20196;-79
2024/02/17 11:15:59;;;;;;;17.13;15.43;;;;;;;;;;6248122;23;20196;-77
2024/02/17 11:18:29;;;;;;;17.23;15.63;;;;;;;;;;6247605;23;20160;-78
2024/02/17 11:20:56;;;;;;;16.30;14.80;;;;;;;;;;6247536;23;20185;-78
2024/02/17 11:23:31;;;;;;;18.83;17.03;;;;;;;;;;6247570;23;20165;-79
2024/02/17 11:25:57;;;;;;;16.67;15.07;;;;;;;;;;6247283;23;20584;-78
2024/02/17 11:28:24;;;;;;;17.70;15.90;;;;;;;;;;6247382;23;20171;-80
2024/02/17 11:30:51;;;;;;;17.43;15.87;;;;;;;;;;6248127;23;20168;-79
2024/02/17 11:33:31;;;;;;;15.37;13.97;;;;;;;;;;6247888;23;20161;-79
2024/02/17 11:36:04;;;;;;;15.30;13.90;;;;;;;;;;6247726;23;20153;-78
2024/02/17 11:38:31;;;;;;;16.63;15.10;;;;;;;;;;6248338;23;20167;-81
2024/02/17 11:41:07;;;;;;;17.87;16.27;;;;;;;;;;6248038;23;20150;-80
2024/02/17 11:43:34;;;;;;;18.00;16.30;;;;;;;;;;6248054;23;20168;-81
2024/02/17 11:46:08;;;;;;;18.73;16.93;;;;;;;;;;6248632;23;20166;-81
2024/02/17 11:48:34;;;;;;;18.27;16.50;;;;;;;;;;6248651;23;20149;-78
2024/02/17 11:51:11;;;;;;;19.00;17.10;;;;;;;;;;6248805;23;20495;-80
2024/02/17 11:53:44;;;;;;;18.47;16.77;;;;;;;;;;6248446;23;20200;-81
2024/02/17 11:56:11;;;;;;;18.30;16.47;;;;;;;;;;6221464;23;20173;-81
2024/02/17 11:58:38;;;;;;;15.90;14.30;;;;;;;;;;6248343;23;20189;-80
2024/02/17 12:01:08;;;;;;;15.80;14.33;;;;;;;;;;6247800;23;20200;-81
2024/02/17 12:03:37;;;;;;;15.83;14.43;;;;;;;;;;6248187;23;20161;-80
2024/02/17 12:06:06;;;;;;;15.53;14.03;;;;;;;;;;6220721;23;20173;-81
2024/02/17 12:08:36;;;;;;;14.77;13.37;;;;;;;;;;6248045;23;20144;-81
2024/02/17 12:11:10;;;;;;;14.70;13.30;;;;;;;;;;6221947;23;20172;-81
2024/02/17 12:13:38;;;;;;;17.07;15.37;;;;;;;;;;6222725;23;20182;-78
2024/02/17 12:16:09;;;;;;;15.73;14.30;;;;;;;;;;6248571;23;20235;-79
2024/02/17 12:18:40;;;;;;;14.93;13.43;;;;;;;;;;6222989;23;20160;-80
2024/02/17 12:21:08;;;;;;;13.37;12.07;;;;;;;;;;6249125;23;20157;-81
2024/02/17 12:23:39;;;;;;;14.20;12.70;;;;;;;;;;6249031;23;20242;-81
2024/02/17 12:26:06;;;;;;;12.77;11.57;;;;;;;;;;6249316;23;20152;-81
2024/02/17 12:28:46;;;;;;;12.70;11.50;;;;;;;;;;6225951;23;20215;-81
2024/02/17 12:31:33;;;;;;;12.17;11.07;;;;;;;;;;6223572;23;20229;-80
2024/02/17 12:34:01;;;;;;;11.63;10.63;;;;;;;;;;6246353;23;20177;-79
2024/02/17 12:36:41;;;;;;;11.53;10.40;;;;;;;;;;6239631;23;20155;-81
2024/02/17 12:39:09;;;;;;;10.97;9.97;;;;;;;;;;6250710;23;20598;-81
2024/02/17 12:41:36;;;;;;;10.50;9.50;;;;;;;;;;6224285;23;20170;-81
2024/02/17 12:44:03;;;;;;;10.33;9.43;;;;;;;;;;6224593;23;20189;-81
2024/02/17 12:46:39;;;;;;;10.47;9.40;;;;;;;;;;6225703;23;20184;-81
2024/02/17 12:49:12;;;;;;;9.70;8.80;;;;;;;;;;6251654;23;20160;-81
2024/02/17 12:51:40;;;;;;;8.33;7.53;;;;;;;;;;6250600;23;20173;-81
2024/02/17 12:54:07;;;;;;;8.70;7.63;;;;;;;;;;6223722;23;20183;-81
2024/02/17 12:56:39;;;;;;;7.53;6.83;;;;;;;;;;6223624;23;20160;-81
2024/02/17 12:59:05;;;;;;;7.90;7.23;;;;;;;;;;6250854;23;20250;-80
2024/02/17 13:01:34;;;;;;;9.47;8.57;;;;;;;;;;6222976;23;20195;-81
2024/02/17 13:04:06;;;;;;;10.30;8.53;;;;;;;;;;6249851;23;20652;-80
2024/02/17 13:06:33;;;;;;;10.53;9.43;;;;;;;;;;6223377;23;20678;-79
2024/02/17 13:09:00;;;;;;;9.37;8.57;;;;;;;;;;6222805;23;20623;-79
2024/02/17 13:11:38;;;;;;;10.20;9.30;;;;;;;;;;6248179;23;20199;-80
2024/02/17 13:14:05;;;;;;;10.43;9.57;;;;;;;;;;6248698;23;20146;-79
2024/02/17 13:16:32;;;;;;;10.50;9.57;;;;;;;;;;6247737;23;20175;-79
2024/02/17 13:18:59;;;;;;;10.97;9.97;;;;;;;;;;6248113;23;20159;-80
2024/02/17 13:21:27;;;;;;;10.50;9.50;;;;;;;;;;6247762;23;20162;-79
2024/02/17 13:24:01;;;;;;;10.10;9.30;;;;;;;;;;6220767;23;20705;-79
2024/02/17 13:26:29;;;;;;;10.30;9.30;;;;;;;;;;6247453;23;20175;-79
2024/02/17 13:29:00;;;;;;;11.20;10.10;;;;;;;;;;6221174;23;20201;-80
2024/02/17 13:31:27;;;;;;;9.77;8.97;;;;;;;;;;6220941;23;20200;-79
2024/02/17 13:33:57;;;;;;;9.47;8.57;;;;;;;;;;6220437;23;20197;-79
2024/02/17 13:36:24;;;;;;;9.43;8.60;;;;;;;;;;6246972;23;20189;-82
2024/02/17 13:38:57;;;;;;;9.80;9.00;;;;;;;;;;6220371;23;20201;-79
2024/02/17 13:41:28;;;;;;;10.50;9.70;;;;;;;;;;6246868;23;20165;-79
2024/02/17 13:44:02;;;;;;;11.50;10.50;;;;;;;;;;6220208;23;20157;-81
2024/02/17 13:46:28;;;;;;;13.47;12.20;;;;;;;;;;6220032;23;20173;-81
2024/02/17 13:49:11;;;;;;;12.93;11.83;;;;;;;;;;6247177;23;20150;-79
2024/02/17 13:51:42;;;;;;;15.20;13.80;;;;;;;;;;6191141;23;20162;-79
2024/02/17 13:54:11;;;;;;;15.50;14.10;;;;;;;;;;6215311;23;20217;-79
2024/02/17 13:56:41;;;;;;;16.97;15.47;;;;;;;;;;6219917;23;20166;-79
2024/02/17 13:59:13;;;;;;;16.80;15.30;;;;;;;;;;6247262;23;20153;-79
2024/02/17 14:01:42;;;;;;;18.37;16.77;;;;;;;;;;6220956;23;20165;-79
2024/02/17 14:04:09;;;;;;;17.30;15.80;;;;;;;;;;6247483;23;20157;-79
2024/02/17 14:06:37;;;;;;;16.40;14.83;;;;;;;;;;6247090;23;20162;-80
2024/02/17 14:09:03;;;;;;;15.40;13.90;;;;;;;;;;6246907;23;20161;-79
2024/02/17 14:11:36;;;;;;;16.83;15.43;;;;;;;;;;6247953;23;20203;-79
2024/02/17 14:14:03;;;;;;;15.70;14.10;;;;;;;;;;6247493;23;20161;-79
2024/02/17 14:16:32;;;;;;;14.90;13.53;;;;;;;;;;6248309;23;20168;-79
2024/02/17 14:19:07;;;;;;;13.57;12.27;;;;;;;;;;6222956;23;20588;-79
2024/02/17 14:21:35;;;;;;;12.93;11.83;;;;;;;;;;6221047;23;20210;-79
2024/02/17 14:24:05;;;;;;;13.07;11.87;;;;;;;;;;6192103;23;20259;-79
2024/02/17 14:26:39;;;;;;;11.93;10.87;;;;;;;;;;6237471;23;20185;-79
2024/02/17 14:29:06;;;;;;;12.90;11.70;;;;;;;;;;6249244;22;20209;-79
2024/02/17 14:31:40;;;;;;;12.60;11.50;;;;;;;;;;6223011;23;20174;-79
2024/02/17 14:34:15;;;;;;;12.27;11.17;;;;;;;;;;6249741;23;20168;-79
2024/02/17 14:36:41;;;;;;;11.57;10.53;;;;;;;;;;6222311;23;20191;-80
2024/02/17 14:39:11;;;;;;;12.20;11.10;;;;;;;;;;6222945;23;20162;-79